Stations météo

réclame
Mon MeteoGroup
Pian Rosa, Italie (16052): Température de l'air & dewpoint: 16.10.2017 17:00:00 - 22.10.2017 17:00:00 (CEST)Pian Rosa, Italie (16052): Vitesse du vent: 16.10.2017 17:00:00 - 22.10.2017 17:00:00 (CEST)Pian Rosa, Italie (16052): Direction du vent: 16.10.2017 17:00:00 - 22.10.2017 17:00:00 (CEST)Pian Rosa, Italie (16052): visibility: 16.10.2017 17:00:00 - 22.10.2017 17:00:00 (CEST)Pian Rosa, Italie (16052): Ensoleillement: 16.10.2017 17:00:00 - 22.10.2017 17:00:00 (CEST)
Date & Time tt [°C] td [°C] ff [km/h] ff [knt] dd vv [km] sd [min]
22.10.2017 17:00:00 -10,8 -12,8 55 30 NNE 0,8 24
22.10.2017 16:00:00 -10,4 -12,4 65 35 N 0,8 54
22.10.2017 15:00:00 -10,2 -10,2 18 10 NNW 5 48
22.10.2017 14:00:00 -9,4 -9,7 5 3 N 10 54
22.10.2017 13:00:00 -8,8 -10,1 18 10 NE 10 42
22.10.2017 12:00:00 -9,0 -10,3 15 8 ENE 10 54
22.10.2017 11:00:00 -8,8 -8,8 18 10 NE 10 0
22.10.2017 10:00:00 -8,2 -9,5 22 12 NE 10 0
22.10.2017 09:00:00 -8,0 -8,0 9 5 E 10 -
22.10.2017 08:00:00 -6,4 -7,8 18 10 SSW 0,3 -
22.10.2017 07:00:00 -6,8 -8,2 18 10 SSW 10 -
22.10.2017 06:00:00 -6,0 -8,0 28 15 SSW 10 -
22.10.2017 05:00:00 -5,8 -8,4 37 20 SSW 10 -
22.10.2017 04:00:00 -5,2 -5,5 52 28 SSW 0,8 -
22.10.2017 03:00:00 -4,6 -4,6 52 28 SSW 0,8 -
22.10.2017 02:00:00 -3,8 -3,8 46 25 SSW 0,8 -
22.10.2017 01:00:00 -3,2 -3,2 46 25 S 0,1 -
22.10.2017 00:00:00 -3,0 -3,0 37 20 SSW 0,1 -
21.10.2017 23:00:00 -2,4 -2,8 41 22 SSW 10 -
21.10.2017 22:00:00 -2,2 -2,6 37 20 SSW 10 -
21.10.2017 21:00:00 -1,8 -3,4 37 20 SSW 10 -
21.10.2017 20:00:00 -1,4 -4,1 18 10 SSW 10 -
21.10.2017 19:00:00 -0,8 -4,2 28 15 SSW 10 0
21.10.2017 18:00:00 -0,2 -3,7 37 20 SSW 10 18
21.10.2017 17:00:00 0,0 -4,6 28 15 SSW 10 42
21.10.2017 16:00:00 0,4 -3,9 22 12 SSW 10 30
21.10.2017 15:00:00 1,0 -3,5 18 10 SSW 10 48
21.10.2017 14:00:00 1,4 -2,5 22 12 SSW 10 36
21.10.2017 13:00:00 1,8 -3,5 18 10 SSW 10 48
21.10.2017 12:00:00 1,8 -6,8 15 8 SSW 10 30
21.10.2017 11:00:00 1,0 -6,1 4 2 N 10 54
21.10.2017 10:00:00 -0,4 -4,1 15 8 N 10 6
21.10.2017 09:00:00 -0,6 -3,8 28 15 ENE 10 -
21.10.2017 08:00:00 -0,2 -3,4 28 15 N 10 -
21.10.2017 07:00:00 -0,4 -3,3 28 15 ENE 10 -
21.10.2017 06:00:00 -1,2 -4,5 37 20 S 10 -
21.10.2017 05:00:00 -1,8 -2,9 28 15 S 10 -
21.10.2017 04:00:00 -2,2 -2,2 28 15 S 10 -
21.10.2017 03:00:00 -2,4 -2,4 28 15 S 10 -
21.10.2017 02:00:00 -2,4 -2,4 37 20 S 10 -
21.10.2017 01:00:00 -2,4 -2,4 28 15 S 10 -
21.10.2017 00:00:00 -2,0 -2,0 37 20 S 10 -
20.10.2017 23:00:00 -2,0 -2,0 37 20 S 10 -
20.10.2017 22:00:00 -2,0 -2,0 37 20 SSW 10 -
20.10.2017 21:00:00 -1,8 -1,8 46 25 SSW 10 -
20.10.2017 20:00:00 -1,4 -1,4 37 20 W 10 0
20.10.2017 19:00:00 -0,8 -2,2 46 25 WSW 10 0
20.10.2017 18:00:00 -0,4 -2,8 37 20 W 10 0
20.10.2017 17:00:00 0,0 -3,4 37 20 SW 10 60
20.10.2017 16:00:00 0,2 -3,3 37 20 W 10 54
20.10.2017 15:00:00 -0,2 -3,7 28 15 W 10 48
20.10.2017 14:00:00 -0,2 -4,8 37 20 WSW 10 36
20.10.2017 13:00:00 -0,8 -5,0 28 15 W 10 48
20.10.2017 12:00:00 -1,0 -5,6 28 15 W 10 30
20.10.2017 11:00:00 -1,4 -7,3 37 20 WSW 10 18
20.10.2017 10:00:00 -1,4 -8,6 46 25 NNE 10 6
20.10.2017 09:00:00 -1,4 -9,7 37 20 SSW 10 -
20.10.2017 08:00:00 -1,6 -13,7 18 10 SSW 10 -
20.10.2017 07:00:00 -1,8 -17,1 37 20 S 10 -
20.10.2017 06:00:00 -2,0 -22,0 37 20 SSW 10 -
20.10.2017 05:00:00 -2,4 -28,9 28 15 S 10 -
20.10.2017 04:00:00 -2,6 -27,3 46 25 S 10 -
20.10.2017 03:00:00 -0,3 -20,5 46 25 S 10 -
20.10.2017 02:00:00 -2,8 -19,2 46 25 S 10 -
20.10.2017 01:00:00 -2,0 -23,2 37 20 S 10 -
20.10.2017 00:00:00 -3,0 -9,7 28 15 S 10 -
19.10.2017 23:00:00 -2,0 -20,4 28 15 S 0,8 -
19.10.2017 22:00:00 -1,0 -18,6 28 15 S 0,8 -
19.10.2017 21:00:00 -2,4 -2,4 0 0 N 0,1 -
19.10.2017 20:00:00 -2,2 -2,2 28 15 SW 0,1 0
19.10.2017 19:00:00 -2,0 -2,0 46 25 SSW 0,1 60
19.10.2017 18:00:00 -1,4 -1,4 46 25 W 0,1 0
19.10.2017 17:00:00 -0,8 -0,8 46 25 SW 0,1 0
19.10.2017 16:00:00 0,0 0,0 55 30 SW 0,8 12
19.10.2017 15:00:00 0,0 -0,8 9 5 S 0,8 60
19.10.2017 14:00:00 0,2 -2,8 28 15 S 10 54
19.10.2017 13:00:00 0,2 -3,5 28 15 SSW 10 12
19.10.2017 12:00:00 -0,4 -3,8 18 10 S 10 48
19.10.2017 11:00:00 -0,8 -4,0 28 15 SSE 10 60
19.10.2017 10:00:00 -2,4 -4,1 4 2 - 10 6
19.10.2017 09:00:00 -2,4 -4,0 9 5 W 10 -
19.10.2017 08:00:00 -2,4 -4,1 18 10 S 10 -
19.10.2017 07:00:00 -2,2 -3,9 28 15 S 10 -
19.10.2017 06:00:00 -2,2 -4,1 37 20 S 10 -
19.10.2017 05:00:00 -1,8 -4,0 18 10 SSW 10 -
19.10.2017 04:00:00 -2,0 -3,4 28 15 S 10 -
19.10.2017 03:00:00 -2,6 -4,0 28 15 S 10 -
19.10.2017 02:00:00 -2,2 -6,0 28 15 SSW 10 -
19.10.2017 01:00:00 -2,0 -7,3 28 15 SSW 10 -
19.10.2017 00:00:00 -2,0 -7,1 28 15 S 10 -
18.10.2017 23:00:00 -2,0 -7,9 28 15 S 10 -
18.10.2017 22:00:00 -2,0 -8,1 18 10 S 10 -
18.10.2017 21:00:00 -1,4 -9,3 28 15 S 10 -
18.10.2017 20:00:00 -0,8 -9,0 9 5 SSW 10 6
18.10.2017 19:00:00 -0,6 -8,8 18 10 SSW 10 60
18.10.2017 18:00:00 0,0 -5,6 9 5 SSW 10 60
18.10.2017 17:00:00 0,2 -5,8 9 5 S 10 60
18.10.2017 16:00:00 0,2 -4,1 18 10 SSW 10 60
18.10.2017 15:00:00 0,2 -4,8 18 10 SW 10 60
18.10.2017 14:00:00 0,4 -6,7 18 10 SSW 10 60
18.10.2017 13:00:00 0,8 -7,7 9 5 S 10 60
18.10.2017 12:00:00 0,4 -8,3 9 5 SSW 10 60
18.10.2017 11:00:00 -0,2 -12,5 9 5 S 10 60
18.10.2017 10:00:00 -0,8 -14,4 0 0 N 10 12
18.10.2017 09:00:00 -2,0 -14,4 4 2 - 10 -
18.10.2017 08:00:00 -2,2 -13,4 18 10 S 10 -
18.10.2017 07:00:00 -2,0 -12,9 37 20 S 10 -
18.10.2017 06:00:00 -2,4 -10,2 28 15 S 10 -
18.10.2017 05:00:00 -2,6 -8,9 37 20 S 10 -
18.10.2017 04:00:00 -2,0 -11,5 37 20 S 10 -
18.10.2017 03:00:00 -1,6 -12,8 37 20 S 10 -
18.10.2017 02:00:00 -0,8 -13,4 28 15 S 10 -
18.10.2017 01:00:00 -0,8 -15,1 28 15 S 10 -
18.10.2017 00:00:00 -0,2 -14,2 37 20 SSW 10 -
17.10.2017 23:00:00 0,2 -14,2 37 20 S 10 -
17.10.2017 22:00:00 0,0 -13,0 37 20 S 10 -
17.10.2017 21:00:00 0,8 -13,6 18 10 S 10 -
17.10.2017 20:00:00 0,8 -12,9 74 40 S 10 12
17.10.2017 19:00:00 1,0 -10,2 46 25 S 10 48
17.10.2017 18:00:00 1,0 -6,5 55 30 S 10 60
17.10.2017 17:00:00 1,4 -6,2 46 25 SW 10 60
17.10.2017 16:00:00 1,8 -7,0 18 10 E 10 60
17.10.2017 15:00:00 2,0 -6,1 37 20 S 10 60
17.10.2017 14:00:00 1,8 -6,3 28 15 SSW 10 60
17.10.2017 13:00:00 2,4 -7,2 37 20 SSE 10 60
17.10.2017 12:00:00 2,6 -17,6 4 2 - 10 60
17.10.2017 11:00:00 2,0 -22,7 18 10 S 10 60
17.10.2017 10:00:00 1,6 -23,1 28 15 S 10 12
17.10.2017 09:00:00 1,2 -24,2 28 15 S 10 0
17.10.2017 08:00:00 1,0 -24,4 28 15 S 10 0
17.10.2017 07:00:00 2,0 -24,5 28 15 SSW 10 -
17.10.2017 06:00:00 2,2 -24,3 28 15 SSW 10 -
17.10.2017 05:00:00 2,0 -24,5 28 15 SSW 10 -
17.10.2017 04:00:00 1,8 -24,6 18 10 SSW 10 -
17.10.2017 03:00:00 1,8 -24,6 28 15 SSW 10 -
17.10.2017 02:00:00 1,8 -22,9 18 10 SSW 10 -
17.10.2017 01:00:00 2,2 -21,8 28 15 SSW 10 -
17.10.2017 00:00:00 1,6 -14,1 28 15 SSW 10 -
16.10.2017 23:00:00 1,4 -12,8 18 10 SSW 10 -
16.10.2017 22:00:00 1,8 -12,8 18 10 SSW 10 -
16.10.2017 21:00:00 2,0 -13,0 18 10 SSW 10 -
16.10.2017 20:00:00 2,0 -14,6 9 5 SSW 10 12
16.10.2017 19:00:00 2,8 -14,3 9 5 SSW 10 60
16.10.2017 18:00:00 3,2 -11,5 4 2 - 10 60
16.10.2017 17:00:00 3,4 -5,3 9 5 SW 10 60

tt = Température de l'air
td = dewpoint
ff = Vitesse du vent
dd = Direction du vent
vv = visibility
sd = Ensoleillement

stations d'obs. à proximité